sensor_id;sensor_type;location;lat;lon;timestamp;P1;durP1;ratioP1;P2;durP2;ratioP2
8260;SDS011;64115;50.170;8.242;2023-02-28T00:01:41;3.23;;;1.97;;
8260;SDS011;64115;50.170;8.242;2023-02-28T00:04:08;2.17;;;1.83;;
8260;SDS011;64115;50.170;8.242;2023-02-28T00:06:35;1.83;;;1.73;;
8260;SDS011;64115;50.170;8.242;2023-02-28T00:09:02;2.53;;;1.53;;
8260;SDS011;64115;50.170;8.242;2023-02-28T00:11:30;2.37;;;2.00;;
8260;SDS011;64115;50.170;8.242;2023-02-28T00:13:57;2.27;;;2.07;;
8260;SDS011;64115;50.170;8.242;2023-02-28T00:16:26;2.33;;;2.13;;
8260;SDS011;64115;50.170;8.242;2023-02-28T00:18:53;2.43;;;2.33;;
8260;SDS011;64115;50.170;8.242;2023-02-28T00:21:20;2.43;;;2.23;;
8260;SDS011;64115;50.170;8.242;2023-02-28T00:23:48;2.30;;;2.20;;
8260;SDS011;64115;50.170;8.242;2023-02-28T00:26:15;2.50;;;2.30;;
8260;SDS011;64115;50.170;8.242;2023-02-28T00:28:42;2.27;;;2.07;;
8260;SDS011;64115;50.170;8.242;2023-02-28T00:31:09;2.80;;;2.60;;
8260;SDS011;64115;50.170;8.242;2023-02-28T00:33:38;2.83;;;2.63;;
8260;SDS011;64115;50.170;8.242;2023-02-28T00:36:05;2.40;;;2.20;;
8260;SDS011;64115;50.170;8.242;2023-02-28T00:38:34;2.70;;;2.50;;
8260;SDS011;64115;50.170;8.242;2023-02-28T00:41:02;2.80;;;2.50;;
8260;SDS011;64115;50.170;8.242;2023-02-28T00:43:30;2.97;;;2.60;;
8260;SDS011;64115;50.170;8.242;2023-02-28T00:45:58;2.40;;;2.30;;
8260;SDS011;64115;50.170;8.242;2023-02-28T00:48:26;2.80;;;2.60;;
8260;SDS011;64115;50.170;8.242;2023-02-28T00:50:54;2.97;;;2.77;;
8260;SDS011;64115;50.170;8.242;2023-02-28T00:53:21;3.20;;;2.50;;
8260;SDS011;64115;50.170;8.242;2023-02-28T00:55:48;2.80;;;2.60;;
8260;SDS011;64115;50.170;8.242;2023-02-28T00:58:15;4.07;;;2.70;;
8260;SDS011;64115;50.170;8.242;2023-02-28T01:00:42;3.10;;;2.80;;
8260;SDS011;64115;50.170;8.242;2023-02-28T01:03:14;2.93;;;2.67;;
8260;SDS011;64115;50.170;8.242;2023-02-28T01:05:41;2.60;;;2.50;;
8260;SDS011;64115;50.170;8.242;2023-02-28T01:08:09;3.50;;;2.83;;
8260;SDS011;64115;50.170;8.242;2023-02-28T01:10:36;3.20;;;2.90;;
8260;SDS011;64115;50.170;8.242;2023-02-28T01:13:03;3.90;;;3.50;;
8260;SDS011;64115;50.170;8.242;2023-02-28T01:15:30;3.13;;;2.93;;
8260;SDS011;64115;50.170;8.242;2023-02-28T01:17:58;3.77;;;3.37;;
8260;SDS011;64115;50.170;8.242;2023-02-28T01:20:25;3.77;;;3.47;;
8260;SDS011;64115;50.170;8.242;2023-02-28T01:22:52;3.30;;;3.10;;
8260;SDS011;64115;50.170;8.242;2023-02-28T01:25:20;3.73;;;3.43;;
8260;SDS011;64115;50.170;8.242;2023-02-28T01:27:47;4.40;;;3.47;;
8260;SDS011;64115;50.170;8.242;2023-02-28T01:30:14;4.17;;;3.77;;
8260;SDS011;64115;50.170;8.242;2023-02-28T01:32:41;3.83;;;3.53;;
8260;SDS011;64115;50.170;8.242;2023-02-28T01:35:09;4.67;;;3.53;;
8260;SDS011;64115;50.170;8.242;2023-02-28T01:37:35;4.33;;;3.93;;
8260;SDS011;64115;50.170;8.242;2023-02-28T01:40:03;4.87;;;3.60;;
8260;SDS011;64115;50.170;8.242;2023-02-28T01:42:32;5.07;;;4.00;;
8260;SDS011;64115;50.170;8.242;2023-02-28T01:45:08;4.80;;;3.93;;
8260;SDS011;64115;50.170;8.242;2023-02-28T01:47:48;4.13;;;3.83;;
8260;SDS011;64115;50.170;8.242;2023-02-28T01:50:19;3.90;;;3.60;;
8260;SDS011;64115;50.170;8.242;2023-02-28T01:52:49;4.50;;;4.10;;
8260;SDS011;64115;50.170;8.242;2023-02-28T01:55:18;3.73;;;3.43;;
8260;SDS011;64115;50.170;8.242;2023-02-28T01:57:51;5.43;;;4.07;;
8260;SDS011;64115;50.170;8.242;2023-02-28T02:00:21;4.10;;;3.73;;
8260;SDS011;64115;50.170;8.242;2023-02-28T02:02:53;4.40;;;3.97;;
8260;SDS011;64115;50.170;8.242;2023-02-28T02:05:23;4.43;;;4.00;;
8260;SDS011;64115;50.170;8.242;2023-02-28T02:07:52;4.00;;;3.70;;
8260;SDS011;64115;50.170;8.242;2023-02-28T02:10:24;6.50;;;3.70;;
8260;SDS011;64115;50.170;8.242;2023-02-28T02:13:13;4.23;;;3.83;;
8260;SDS011;64115;50.170;8.242;2023-02-28T02:16:04;5.00;;;3.70;;
8260;SDS011;64115;50.170;8.242;2023-02-28T02:18:43;4.47;;;3.93;;
8260;SDS011;64115;50.170;8.242;2023-02-28T02:24:29;4.77;;;4.20;;
8260;SDS011;64115;50.170;8.242;2023-02-28T02:27:27;5.30;;;4.40;;
8260;SDS011;64115;50.170;8.242;2023-02-28T02:30:17;4.50;;;3.83;;
8260;SDS011;64115;50.170;8.242;2023-02-28T02:33:06;5.47;;;4.47;;
8260;SDS011;64115;50.170;8.242;2023-02-28T02:35:53;5.23;;;4.53;;
8260;SDS011;64115;50.170;8.242;2023-02-28T02:38:27;4.87;;;4.37;;
8260;SDS011;64115;50.170;8.242;2023-02-28T02:41:03;4.73;;;4.30;;
8260;SDS011;64115;50.170;8.242;2023-02-28T02:43:35;4.40;;;4.03;;
8260;SDS011;64115;50.170;8.242;2023-02-28T02:46:08;4.73;;;4.30;;
8260;SDS011;64115;50.170;8.242;2023-02-28T02:48:38;4.17;;;3.87;;
8260;SDS011;64115;50.170;8.242;2023-02-28T02:51:11;3.87;;;3.40;;
8260;SDS011;64115;50.170;8.242;2023-02-28T02:53:42;5.50;;;4.47;;
8260;SDS011;64115;50.170;8.242;2023-02-28T02:56:14;6.20;;;4.13;;
8260;SDS011;64115;50.170;8.242;2023-02-28T02:58:44;4.87;;;4.17;;
8260;SDS011;64115;50.170;8.242;2023-02-28T03:01:15;4.33;;;3.90;;
8260;SDS011;64115;50.170;8.242;2023-02-28T03:03:53;4.80;;;3.57;;
8260;SDS011;64115;50.170;8.242;2023-02-28T03:06:24;4.50;;;4.10;;
8260;SDS011;64115;50.170;8.242;2023-02-28T03:08:52;5.07;;;4.47;;
8260;SDS011;64115;50.170;8.242;2023-02-28T03:11:19;5.13;;;4.57;;
8260;SDS011;64115;50.170;8.242;2023-02-28T03:17:14;6.33;;;4.53;;
8260;SDS011;64115;50.170;8.242;2023-02-28T03:19:58;4.90;;;4.30;;
8260;SDS011;64115;50.170;8.242;2023-02-28T03:25:28;5.37;;;4.33;;
8260;SDS011;64115;50.170;8.242;2023-02-28T03:28:00;5.73;;;4.50;;
8260;SDS011;64115;50.170;8.242;2023-02-28T03:30:36;5.20;;;4.30;;
8260;SDS011;64115;50.170;8.242;2023-02-28T03:33:08;4.10;;;3.77;;
8260;SDS011;64115;50.170;8.242;2023-02-28T03:35:40;5.47;;;4.90;;
8260;SDS011;64115;50.170;8.242;2023-02-28T03:38:13;4.73;;;4.33;;
8260;SDS011;64115;50.170;8.242;2023-02-28T03:40:45;5.17;;;4.67;;
8260;SDS011;64115;50.170;8.242;2023-02-28T03:43:17;5.73;;;4.50;;
8260;SDS011;64115;50.170;8.242;2023-02-28T03:45:47;4.53;;;4.17;;
8260;SDS011;64115;50.170;8.242;2023-02-28T03:48:20;4.40;;;4.00;;
8260;SDS011;64115;50.170;8.242;2023-02-28T03:50:52;4.73;;;4.33;;
8260;SDS011;64115;50.170;8.242;2023-02-28T03:53:25;4.63;;;4.23;;
8260;SDS011;64115;50.170;8.242;2023-02-28T03:55:56;4.63;;;4.23;;
8260;SDS011;64115;50.170;8.242;2023-02-28T03:58:29;5.43;;;4.80;;
8260;SDS011;64115;50.170;8.242;2023-02-28T04:01:00;4.60;;;4.20;;
8260;SDS011;64115;50.170;8.242;2023-02-28T04:03:34;5.07;;;4.57;;
8260;SDS011;64115;50.170;8.242;2023-02-28T04:06:01;5.50;;;4.57;;
8260;SDS011;64115;50.170;8.242;2023-02-28T04:08:31;5.13;;;4.67;;
8260;SDS011;64115;50.170;8.242;2023-02-28T04:11:00;3.77;;;3.20;;
8260;SDS011;64115;50.170;8.242;2023-02-28T04:13:31;6.73;;;4.90;;
8260;SDS011;64115;50.170;8.242;2023-02-28T04:15:58;6.07;;;4.93;;
8260;SDS011;64115;50.170;8.242;2023-02-28T04:18:25;5.30;;;4.70;;
8260;SDS011;64115;50.170;8.242;2023-02-28T04:20:51;4.90;;;3.40;;
8260;SDS011;64115;50.170;8.242;2023-02-28T04:23:18;4.77;;;3.80;;
8260;SDS011;64115;50.170;8.242;2023-02-28T04:25:47;5.63;;;4.27;;
8260;SDS011;64115;50.170;8.242;2023-02-28T04:28:16;6.10;;;4.83;;
8260;SDS011;64115;50.170;8.242;2023-02-28T04:30:43;4.90;;;4.40;;
8260;SDS011;64115;50.170;8.242;2023-02-28T04:33:10;4.57;;;4.10;;
8260;SDS011;64115;50.170;8.242;2023-02-28T04:35:37;4.80;;;4.30;;
8260;SDS011;64115;50.170;8.242;2023-02-28T04:38:04;4.50;;;4.10;;
8260;SDS011;64115;50.170;8.242;2023-02-28T04:40:31;4.77;;;4.23;;
8260;SDS011;64115;50.170;8.242;2023-02-28T04:42:59;6.53;;;4.87;;
8260;SDS011;64115;50.170;8.242;2023-02-28T04:45:28;5.13;;;4.70;;
8260;SDS011;64115;50.170;8.242;2023-02-28T04:47:57;5.00;;;4.43;;
8260;SDS011;64115;50.170;8.242;2023-02-28T04:50:24;4.83;;;4.40;;
8260;SDS011;64115;50.170;8.242;2023-02-28T04:52:51;6.03;;;4.67;;
8260;SDS011;64115;50.170;8.242;2023-02-28T04:55:22;5.80;;;4.80;;
8260;SDS011;64115;50.170;8.242;2023-02-28T04:57:49;5.07;;;4.67;;
8260;SDS011;64115;50.170;8.242;2023-02-28T05:00:18;5.73;;;5.20;;
8260;SDS011;64115;50.170;8.242;2023-02-28T05:02:45;5.90;;;5.30;;
8260;SDS011;64115;50.170;8.242;2023-02-28T05:05:12;5.77;;;5.17;;
8260;SDS011;64115;50.170;8.242;2023-02-28T05:07:43;5.90;;;4.97;;
8260;SDS011;64115;50.170;8.242;2023-02-28T05:10:10;4.57;;;4.17;;
8260;SDS011;64115;50.170;8.242;2023-02-28T05:12:37;5.40;;;4.90;;
8260;SDS011;64115;50.170;8.242;2023-02-28T05:15:05;5.83;;;5.03;;
8260;SDS011;64115;50.170;8.242;2023-02-28T05:17:34;6.30;;;5.10;;
8260;SDS011;64115;50.170;8.242;2023-02-28T05:20:01;5.20;;;4.80;;
8260;SDS011;64115;50.170;8.242;2023-02-28T05:22:30;5.43;;;4.93;;
8260;SDS011;64115;50.170;8.242;2023-02-28T05:24:57;5.00;;;4.50;;
8260;SDS011;64115;50.170;8.242;2023-02-28T05:27:24;5.53;;;4.93;;
8260;SDS011;64115;50.170;8.242;2023-02-28T05:29:51;6.00;;;5.07;;
8260;SDS011;64115;50.170;8.242;2023-02-28T05:32:18;6.03;;;5.00;;
8260;SDS011;64115;50.170;8.242;2023-02-28T05:34:46;6.40;;;4.87;;
8260;SDS011;64115;50.170;8.242;2023-02-28T05:37:13;6.23;;;4.80;;
8260;SDS011;64115;50.170;8.242;2023-02-28T05:39:41;5.07;;;4.67;;
8260;SDS011;64115;50.170;8.242;2023-02-28T05:42:08;5.20;;;4.53;;
8260;SDS011;64115;50.170;8.242;2023-02-28T05:44:35;6.07;;;5.10;;
8260;SDS011;64115;50.170;8.242;2023-02-28T05:47:02;5.30;;;4.23;;
8260;SDS011;64115;50.170;8.242;2023-02-28T05:49:29;5.00;;;4.60;;
8260;SDS011;64115;50.170;8.242;2023-02-28T05:51:58;4.73;;;3.97;;
8260;SDS011;64115;50.170;8.242;2023-02-28T05:54:25;5.87;;;4.63;;
8260;SDS011;64115;50.170;8.242;2023-02-28T05:56:52;6.73;;;5.37;;
8260;SDS011;64115;50.170;8.242;2023-02-28T05:59:19;4.60;;;4.20;;
8260;SDS011;64115;50.170;8.242;2023-02-28T06:01:46;5.17;;;4.63;;
8260;SDS011;64115;50.170;8.242;2023-02-28T06:04:14;4.70;;;4.30;;
8260;SDS011;64115;50.170;8.242;2023-02-28T06:06:44;5.87;;;3.17;;
8260;SDS011;64115;50.170;8.242;2023-02-28T06:09:12;4.17;;;3.63;;
8260;SDS011;64115;50.170;8.242;2023-02-28T06:11:39;5.17;;;4.50;;
8260;SDS011;64115;50.170;8.242;2023-02-28T06:14:07;4.63;;;4.10;;
8260;SDS011;64115;50.170;8.242;2023-02-28T06:16:40;4.40;;;4.00;;
8260;SDS011;64115;50.170;8.242;2023-02-28T06:19:08;5.83;;;4.60;;
8260;SDS011;64115;50.170;8.242;2023-02-28T06:21:36;4.73;;;4.00;;
8260;SDS011;64115;50.170;8.242;2023-02-28T06:24:03;4.73;;;3.93;;
8260;SDS011;64115;50.170;8.242;2023-02-28T06:26:32;4.10;;;3.43;;
8260;SDS011;64115;50.170;8.242;2023-02-28T06:28:59;3.80;;;3.50;;
8260;SDS011;64115;50.170;8.242;2023-02-28T06:31:27;3.00;;;2.70;;
8260;SDS011;64115;50.170;8.242;2023-02-28T06:33:55;4.43;;;3.70;;
8260;SDS011;64115;50.170;8.242;2023-02-28T06:36:22;4.60;;;3.80;;
8260;SDS011;64115;50.170;8.242;2023-02-28T06:38:49;3.50;;;3.20;;
8260;SDS011;64115;50.170;8.242;2023-02-28T06:41:20;4.10;;;2.90;;
8260;SDS011;64115;50.170;8.242;2023-02-28T06:43:48;3.47;;;2.90;;
8260;SDS011;64115;50.170;8.242;2023-02-28T06:46:15;3.57;;;3.13;;
8260;SDS011;64115;50.170;8.242;2023-02-28T06:48:42;4.53;;;3.03;;
8260;SDS011;64115;50.170;8.242;2023-02-28T06:51:10;5.67;;;3.20;;
8260;SDS011;64115;50.170;8.242;2023-02-28T06:53:40;4.83;;;3.43;;
8260;SDS011;64115;50.170;8.242;2023-02-28T06:56:07;3.43;;;3.13;;
8260;SDS011;64115;50.170;8.242;2023-02-28T06:58:37;4.40;;;3.40;;
8260;SDS011;64115;50.170;8.242;2023-02-28T07:01:05;4.17;;;3.23;;
8260;SDS011;64115;50.170;8.242;2023-02-28T07:03:34;3.60;;;3.30;;
8260;SDS011;64115;50.170;8.242;2023-02-28T07:06:02;4.20;;;3.80;;
8260;SDS011;64115;50.170;8.242;2023-02-28T07:08:29;4.40;;;3.20;;
8260;SDS011;64115;50.170;8.242;2023-02-28T07:10:57;3.90;;;3.07;;
8260;SDS011;64115;50.170;8.242;2023-02-28T07:13:24;3.30;;;2.80;;
8260;SDS011;64115;50.170;8.242;2023-02-28T07:15:55;2.93;;;2.23;;
8260;SDS011;64115;50.170;8.242;2023-02-28T07:18:24;3.53;;;2.97;;
8260;SDS011;64115;50.170;8.242;2023-02-28T07:20:52;3.83;;;3.10;;
8260;SDS011;64115;50.170;8.242;2023-02-28T07:23:19;4.70;;;3.50;;
8260;SDS011;64115;50.170;8.242;2023-02-28T07:25:46;3.47;;;3.00;;
8260;SDS011;64115;50.170;8.242;2023-02-28T07:28:15;5.07;;;3.53;;
8260;SDS011;64115;50.170;8.242;2023-02-28T07:30:42;3.67;;;3.37;;
8260;SDS011;64115;50.170;8.242;2023-02-28T07:33:09;3.60;;;3.30;;
8260;SDS011;64115;50.170;8.242;2023-02-28T07:35:38;2.80;;;2.60;;
8260;SDS011;64115;50.170;8.242;2023-02-28T07:38:04;3.60;;;2.60;;
8260;SDS011;64115;50.170;8.242;2023-02-28T07:40:32;4.03;;;3.27;;
8260;SDS011;64115;50.170;8.242;2023-02-28T07:43:00;2.93;;;2.73;;
8260;SDS011;64115;50.170;8.242;2023-02-28T07:45:27;3.43;;;3.13;;
8260;SDS011;64115;50.170;8.242;2023-02-28T07:47:54;3.10;;;2.90;;
8260;SDS011;64115;50.170;8.242;2023-02-28T07:50:22;3.20;;;2.83;;
8260;SDS011;64115;50.170;8.242;2023-02-28T07:52:51;3.77;;;3.47;;
8260;SDS011;64115;50.170;8.242;2023-02-28T07:55:18;3.47;;;3.17;;
8260;SDS011;64115;50.170;8.242;2023-02-28T07:57:45;3.13;;;2.93;;
8260;SDS011;64115;50.170;8.242;2023-02-28T08:00:12;2.93;;;2.73;;
8260;SDS011;64115;50.170;8.242;2023-02-28T08:02:39;3.17;;;2.87;;
8260;SDS011;64115;50.170;8.242;2023-02-28T08:05:07;3.67;;;3.37;;
8260;SDS011;64115;50.170;8.242;2023-02-28T08:07:34;4.17;;;3.50;;
8260;SDS011;64115;50.170;8.242;2023-02-28T08:10:04;3.13;;;2.77;;
8260;SDS011;64115;50.170;8.242;2023-02-28T08:12:32;3.10;;;2.80;;
8260;SDS011;64115;50.170;8.242;2023-02-28T08:14:59;2.50;;;2.20;;
8260;SDS011;64115;50.170;8.242;2023-02-28T08:17:26;3.80;;;3.50;;
8260;SDS011;64115;50.170;8.242;2023-02-28T08:19:53;4.90;;;2.90;;
8260;SDS011;64115;50.170;8.242;2023-02-28T08:22:20;4.97;;;3.03;;
8260;SDS011;64115;50.170;8.242;2023-02-28T08:24:47;3.97;;;2.87;;
8260;SDS011;64115;50.170;8.242;2023-02-28T08:27:15;3.20;;;2.90;;
8260;SDS011;64115;50.170;8.242;2023-02-28T08:29:42;4.07;;;2.80;;
8260;SDS011;64115;50.170;8.242;2023-02-28T08:32:09;2.00;;;1.87;;
8260;SDS011;64115;50.170;8.242;2023-02-28T08:34:38;2.00;;;1.90;;
8260;SDS011;64115;50.170;8.242;2023-02-28T08:37:06;2.00;;;1.80;;
8260;SDS011;64115;50.170;8.242;2023-02-28T08:39:34;1.70;;;1.60;;
8260;SDS011;64115;50.170;8.242;2023-02-28T08:42:01;2.23;;;1.80;;
8260;SDS011;64115;50.170;8.242;2023-02-28T08:44:30;1.30;;;1.30;;
8260;SDS011;64115;50.170;8.242;2023-02-28T08:46:57;1.17;;;1.13;;
8260;SDS011;64115;50.170;8.242;2023-02-28T08:49:24;1.40;;;1.23;;
8260;SDS011;64115;50.170;8.242;2023-02-28T08:51:51;1.97;;;1.40;;
8260;SDS011;64115;50.170;8.242;2023-02-28T08:54:19;1.50;;;1.40;;
8260;SDS011;64115;50.170;8.242;2023-02-28T08:56:46;2.00;;;1.90;;
8260;SDS011;64115;50.170;8.242;2023-02-28T08:59:13;1.13;;;1.10;;
8260;SDS011;64115;50.170;8.242;2023-02-28T09:01:41;1.70;;;1.57;;
8260;SDS011;64115;50.170;8.242;2023-02-28T09:04:09;2.13;;;1.70;;
8260;SDS011;64115;50.170;8.242;2023-02-28T09:06:37;1.93;;;1.70;;
8260;SDS011;64115;50.170;8.242;2023-02-28T09:09:04;1.70;;;1.57;;
8260;SDS011;64115;50.170;8.242;2023-02-28T09:11:32;1.73;;;1.63;;
8260;SDS011;64115;50.170;8.242;2023-02-28T09:13:59;1.83;;;1.73;;
8260;SDS011;64115;50.170;8.242;2023-02-28T09:16:28;1.40;;;1.30;;
8260;SDS011;64115;50.170;8.242;2023-02-28T09:18:57;1.57;;;1.47;;
8260;SDS011;64115;50.170;8.242;2023-02-28T09:21:24;1.90;;;1.80;;
8260;SDS011;64115;50.170;8.242;2023-02-28T09:23:52;1.87;;;1.40;;
8260;SDS011;64115;50.170;8.242;2023-02-28T09:26:20;1.70;;;1.60;;
8260;SDS011;64115;50.170;8.242;2023-02-28T09:28:48;1.27;;;1.27;;
8260;SDS011;64115;50.170;8.242;2023-02-28T09:31:16;1.53;;;1.43;;
8260;SDS011;64115;50.170;8.242;2023-02-28T09:33:47;1.50;;;1.33;;
8260;SDS011;64115;50.170;8.242;2023-02-28T09:36:15;1.87;;;1.77;;
8260;SDS011;64115;50.170;8.242;2023-02-28T09:38:43;2.27;;;2.00;;
8260;SDS011;64115;50.170;8.242;2023-02-28T09:41:12;2.17;;;2.07;;
8260;SDS011;64115;50.170;8.242;2023-02-28T09:43:43;2.00;;;1.90;;
8260;SDS011;64115;50.170;8.242;2023-02-28T09:46:16;1.57;;;1.47;;
8260;SDS011;64115;50.170;8.242;2023-02-28T09:48:53;1.83;;;1.73;;
8260;SDS011;64115;50.170;8.242;2023-02-28T09:51:33;1.70;;;1.60;;
8260;SDS011;64115;50.170;8.242;2023-02-28T09:54:11;1.87;;;1.77;;
8260;SDS011;64115;50.170;8.242;2023-02-28T09:56:44;2.23;;;2.10;;
8260;SDS011;64115;50.170;8.242;2023-02-28T09:59:19;2.47;;;1.70;;
8260;SDS011;64115;50.170;8.242;2023-02-28T10:01:57;1.90;;;1.80;;
8260;SDS011;64115;50.170;8.242;2023-02-28T10:04:36;1.40;;;1.30;;
8260;SDS011;64115;50.170;8.242;2023-02-28T10:07:15;1.80;;;1.70;;
8260;SDS011;64115;50.170;8.242;2023-02-28T10:09:51;1.63;;;1.53;;
8260;SDS011;64115;50.170;8.242;2023-02-28T10:12:21;1.73;;;1.63;;
8260;SDS011;64115;50.170;8.242;2023-02-28T10:14:49;1.93;;;1.83;;
8260;SDS011;64115;50.170;8.242;2023-02-28T10:17:19;1.83;;;1.73;;
8260;SDS011;64115;50.170;8.242;2023-02-28T10:19:52;2.83;;;2.03;;
8260;SDS011;64115;50.170;8.242;2023-02-28T10:22:27;2.63;;;2.33;;
8260;SDS011;64115;50.170;8.242;2023-02-28T10:25:00;8.07;;;2.20;;
8260;SDS011;64115;50.170;8.242;2023-02-28T10:27:32;1.77;;;1.67;;
8260;SDS011;64115;50.170;8.242;2023-02-28T10:30:01;2.73;;;2.07;;
8260;SDS011;64115;50.170;8.242;2023-02-28T10:32:29;2.47;;;2.10;;
8260;SDS011;64115;50.170;8.242;2023-02-28T10:34:59;2.23;;;2.00;;
8260;SDS011;64115;50.170;8.242;2023-02-28T10:37:34;2.40;;;2.20;;
8260;SDS011;64115;50.170;8.242;2023-02-28T10:40:04;2.23;;;2.07;;
8260;SDS011;64115;50.170;8.242;2023-02-28T10:42:32;3.87;;;2.50;;
8260;SDS011;64115;50.170;8.242;2023-02-28T10:45:04;2.10;;;2.00;;
8260;SDS011;64115;50.170;8.242;2023-02-28T10:47:37;3.80;;;2.07;;
8260;SDS011;64115;50.170;8.242;2023-02-28T10:50:28;4.30;;;2.17;;
8260;SDS011;64115;50.170;8.242;2023-02-28T10:53:07;4.37;;;2.33;;
8260;SDS011;64115;50.170;8.242;2023-02-28T10:55:42;2.20;;;2.00;;
8260;SDS011;64115;50.170;8.242;2023-02-28T10:58:23;3.10;;;2.80;;
8260;SDS011;64115;50.170;8.242;2023-02-28T11:00:52;2.40;;;2.23;;
8260;SDS011;64115;50.170;8.242;2023-02-28T11:03:23;3.63;;;2.40;;
8260;SDS011;64115;50.170;8.242;2023-02-28T11:05:55;2.23;;;1.93;;
8260;SDS011;64115;50.170;8.242;2023-02-28T11:08:24;2.77;;;2.47;;
8260;SDS011;64115;50.170;8.242;2023-02-28T11:10:54;2.90;;;2.00;;
8260;SDS011;64115;50.170;8.242;2023-02-28T11:13:25;3.73;;;2.40;;
8260;SDS011;64115;50.170;8.242;2023-02-28T11:15:55;2.53;;;2.37;;
8260;SDS011;64115;50.170;8.242;2023-02-28T11:18:26;2.70;;;2.50;;
8260;SDS011;64115;50.170;8.242;2023-02-28T11:20:56;2.87;;;2.60;;
8260;SDS011;64115;50.170;8.242;2023-02-28T11:23:28;2.47;;;2.27;;
8260;SDS011;64115;50.170;8.242;2023-02-28T11:25:58;2.33;;;2.10;;
8260;SDS011;64115;50.170;8.242;2023-02-28T11:28:28;2.27;;;2.17;;
8260;SDS011;64115;50.170;8.242;2023-02-28T11:31:01;2.60;;;2.40;;
8260;SDS011;64115;50.170;8.242;2023-02-28T11:33:31;2.60;;;2.40;;
8260;SDS011;64115;50.170;8.242;2023-02-28T11:36:01;2.40;;;2.20;;
8260;SDS011;64115;50.170;8.242;2023-02-28T11:38:32;3.03;;;2.83;;
8260;SDS011;64115;50.170;8.242;2023-02-28T11:41:05;2.97;;;2.40;;
8260;SDS011;64115;50.170;8.242;2023-02-28T11:43:56;2.20;;;1.97;;
8260;SDS011;64115;50.170;8.242;2023-02-28T11:46:33;4.63;;;3.00;;
8260;SDS011;64115;50.170;8.242;2023-02-28T11:49:12;2.63;;;2.40;;
8260;SDS011;64115;50.170;8.242;2023-02-28T11:51:48;3.30;;;2.83;;
8260;SDS011;64115;50.170;8.242;2023-02-28T11:57:30;3.13;;;2.83;;
8260;SDS011;64115;50.170;8.242;2023-02-28T12:00:06;2.30;;;2.10;;
8260;SDS011;64115;50.170;8.242;2023-02-28T12:02:47;2.60;;;2.30;;
8260;SDS011;64115;50.170;8.242;2023-02-28T12:05:26;2.87;;;2.67;;
8260;SDS011;64115;50.170;8.242;2023-02-28T12:08:06;2.83;;;2.60;;
8260;SDS011;64115;50.170;8.242;2023-02-28T12:10:54;2.27;;;2.17;;
8260;SDS011;64115;50.170;8.242;2023-02-28T12:13:29;2.57;;;2.37;;
8260;SDS011;64115;50.170;8.242;2023-02-28T12:16:22;2.97;;;2.60;;
8260;SDS011;64115;50.170;8.242;2023-02-28T12:19:01;3.27;;;2.97;;
8260;SDS011;64115;50.170;8.242;2023-02-28T12:21:37;3.10;;;2.80;;
8260;SDS011;64115;50.170;8.242;2023-02-28T12:24:19;3.13;;;2.77;;
8260;SDS011;64115;50.170;8.242;2023-02-28T12:27:07;3.13;;;2.70;;
8260;SDS011;64115;50.170;8.242;2023-02-28T12:29:39;2.80;;;2.60;;
8260;SDS011;64115;50.170;8.242;2023-02-28T12:32:12;3.20;;;2.50;;
8260;SDS011;64115;50.170;8.242;2023-02-28T12:34:46;2.60;;;2.40;;
8260;SDS011;64115;50.170;8.242;2023-02-28T12:37:16;3.83;;;3.40;;
8260;SDS011;64115;50.170;8.242;2023-02-28T12:39:48;3.20;;;2.90;;
8260;SDS011;64115;50.170;8.242;2023-02-28T12:42:23;3.43;;;3.23;;
8260;SDS011;64115;50.170;8.242;2023-02-28T12:44:55;2.63;;;2.40;;
8260;SDS011;64115;50.170;8.242;2023-02-28T12:47:25;2.83;;;2.63;;
8260;SDS011;64115;50.170;8.242;2023-02-28T12:49:53;3.33;;;3.03;;
8260;SDS011;64115;50.170;8.242;2023-02-28T12:52:25;4.70;;;2.80;;
8260;SDS011;64115;50.170;8.242;2023-02-28T12:54:59;5.10;;;2.87;;
8260;SDS011;64115;50.170;8.242;2023-02-28T12:57:34;2.70;;;2.50;;
8260;SDS011;64115;50.170;8.242;2023-02-28T13:00:08;3.07;;;2.87;;
8260;SDS011;64115;50.170;8.242;2023-02-28T13:02:55;5.60;;;2.87;;
8260;SDS011;64115;50.170;8.242;2023-02-28T13:05:49;2.93;;;2.73;;
8260;SDS011;64115;50.170;8.242;2023-02-28T13:11:31;3.60;;;3.30;;
8260;SDS011;64115;50.170;8.242;2023-02-28T13:14:06;4.50;;;3.73;;
8260;SDS011;64115;50.170;8.242;2023-02-28T13:17:01;3.87;;;3.47;;
8260;SDS011;64115;50.170;8.242;2023-02-28T13:19:36;5.50;;;3.60;;
8260;SDS011;64115;50.170;8.242;2023-02-28T13:22:05;3.43;;;3.20;;
8260;SDS011;64115;50.170;8.242;2023-02-28T13:24:44;3.60;;;3.30;;
8260;SDS011;64115;50.170;8.242;2023-02-28T13:27:21;2.97;;;2.77;;
8260;SDS011;64115;50.170;8.242;2023-02-28T13:29:52;2.97;;;2.67;;
8260;SDS011;64115;50.170;8.242;2023-02-28T13:44:10;4.43;;;4.03;;
8260;SDS011;64115;50.170;8.242;2023-02-28T13:49:40;4.47;;;4.07;;
8260;SDS011;64115;50.170;8.242;2023-02-28T13:52:09;3.83;;;3.53;;
8260;SDS011;64115;50.170;8.242;2023-02-28T13:54:44;3.90;;;3.43;;
8260;SDS011;64115;50.170;8.242;2023-02-28T13:57:28;4.20;;;3.80;;
8260;SDS011;64115;50.170;8.242;2023-02-28T14:00:15;4.40;;;4.00;;
8260;SDS011;64115;50.170;8.242;2023-02-28T14:03:03;3.77;;;3.47;;
8260;SDS011;64115;50.170;8.242;2023-02-28T14:05:40;4.23;;;3.83;;
8260;SDS011;64115;50.170;8.242;2023-02-28T14:08:11;4.93;;;3.67;;
8260;SDS011;64115;50.170;8.242;2023-02-28T14:10:43;5.00;;;4.00;;
8260;SDS011;64115;50.170;8.242;2023-02-28T14:13:13;3.90;;;3.60;;
8260;SDS011;64115;50.170;8.242;2023-02-28T14:15:55;4.67;;;4.27;;
8260;SDS011;64115;50.170;8.242;2023-02-28T14:18:25;4.20;;;3.53;;
8260;SDS011;64115;50.170;8.242;2023-02-28T14:20:57;3.43;;;3.17;;
8260;SDS011;64115;50.170;8.242;2023-02-28T14:23:34;3.87;;;3.37;;
8260;SDS011;64115;50.170;8.242;2023-02-28T14:26:23;3.80;;;3.50;;
8260;SDS011;64115;50.170;8.242;2023-02-28T14:29:09;3.07;;;2.80;;
8260;SDS011;64115;50.170;8.242;2023-02-28T14:31:52;3.23;;;2.80;;
8260;SDS011;64115;50.170;8.242;2023-02-28T14:34:26;3.20;;;2.90;;
8260;SDS011;64115;50.170;8.242;2023-02-28T14:37:05;4.10;;;3.77;;
8260;SDS011;64115;50.170;8.242;2023-02-28T14:39:35;4.87;;;4.07;;
8260;SDS011;64115;50.170;8.242;2023-02-28T14:42:02;3.03;;;2.73;;
8260;SDS011;64115;50.170;8.242;2023-02-28T14:44:30;4.53;;;3.43;;
8260;SDS011;64115;50.170;8.242;2023-02-28T14:46:57;3.83;;;3.53;;
8260;SDS011;64115;50.170;8.242;2023-02-28T14:49:31;4.43;;;4.03;;
8260;SDS011;64115;50.170;8.242;2023-02-28T14:52:02;3.87;;;3.47;;
8260;SDS011;64115;50.170;8.242;2023-02-28T14:54:36;4.00;;;3.67;;
8260;SDS011;64115;50.170;8.242;2023-02-28T14:57:04;4.73;;;3.73;;
8260;SDS011;64115;50.170;8.242;2023-02-28T14:59:33;3.77;;;3.47;;
8260;SDS011;64115;50.170;8.242;2023-02-28T15:02:15;6.27;;;3.63;;
8260;SDS011;64115;50.170;8.242;2023-02-28T15:04:43;4.60;;;3.57;;
8260;SDS011;64115;50.170;8.242;2023-02-28T15:07:21;4.37;;;3.70;;
8260;SDS011;64115;50.170;8.242;2023-02-28T15:10:06;3.17;;;2.87;;
8260;SDS011;64115;50.170;8.242;2023-02-28T15:12:37;3.70;;;3.40;;
8260;SDS011;64115;50.170;8.242;2023-02-28T15:15:13;3.80;;;3.40;;
8260;SDS011;64115;50.170;8.242;2023-02-28T15:17:42;3.83;;;3.53;;
8260;SDS011;64115;50.170;8.242;2023-02-28T15:20:12;3.80;;;3.50;;
8260;SDS011;64115;50.170;8.242;2023-02-28T15:22:44;3.60;;;3.33;;
8260;SDS011;64115;50.170;8.242;2023-02-28T15:25:15;4.17;;;3.60;;
8260;SDS011;64115;50.170;8.242;2023-02-28T15:27:47;3.67;;;3.30;;
8260;SDS011;64115;50.170;8.242;2023-02-28T15:30:16;3.70;;;3.40;;
8260;SDS011;64115;50.170;8.242;2023-02-28T15:32:46;3.90;;;3.30;;
8260;SDS011;64115;50.170;8.242;2023-02-28T15:35:30;4.20;;;3.77;;
8260;SDS011;64115;50.170;8.242;2023-02-28T15:38:01;4.13;;;3.83;;
8260;SDS011;64115;50.170;8.242;2023-02-28T15:40:31;4.37;;;3.93;;
8260;SDS011;64115;50.170;8.242;2023-02-28T15:43:04;5.00;;;3.60;;
8260;SDS011;64115;50.170;8.242;2023-02-28T15:45:37;3.63;;;3.33;;
8260;SDS011;64115;50.170;8.242;2023-02-28T15:48:13;4.00;;;3.60;;
8260;SDS011;64115;50.170;8.242;2023-02-28T15:50:43;5.90;;;4.00;;
8260;SDS011;64115;50.170;8.242;2023-02-28T15:53:14;4.77;;;3.70;;
8260;SDS011;64115;50.170;8.242;2023-02-28T15:55:43;3.90;;;3.60;;